»·PEaware :: UAL82 KSFO-KLAS

UAL82 :: KSFO-KLAS

FLIGHT INFORMATION

Flight Status: Arrived
Operator:
United Airlines
More flights by this operator :: More flights under this callsign
Pilot: Justin S. (9599)
Aircraft: BOEING 737-200
(B732)
More flights by this aircraft type
Origin: KSFO San Francisco Intl
United States
Destination: KLAS McCarran Intl
United States
More flights between these airports :: More routes between these airports
Route: +SFO4 OAK J84 BABIT J92 BTY FUZZY8
File this flight plan on PilotEdge
Remarks:
Altitude:
(Current/Filed)
29,000ft
Speed:
(Current/Filed)
500kts
Departed: 15-Aug-20 12:41 PM
Arrived: 15-Aug-20 01:58 PM
Distance/Time
Traveled:
359nm/1:17
Distance/Time
To Go:
Arrived

Flight Plot

Page will automatically refresh every two minutes.

Flight plan parsing failed; only flown route is shown


Map Options




Map Legend


Flown Route
Filed Route
Departure Airport
Arrival Airport
Navaid (VOR, NDB)
Fix

Horizontal Profiles

Position Reports

Time Latitude Longitude Heading Altitude Ground
Speed
15-Aug-20 11:43 37.618223 -122.388091 131 17ft 0kts
15-Aug-20 11:44 37.618223 -122.388091 131 17ft 0kts
15-Aug-20 11:45 37.618223 -122.388091 131 17ft 0kts
15-Aug-20 11:46 37.618223 -122.388091 131 17ft 0kts
15-Aug-20 11:47 37.618223 -122.388091 131 17ft 0kts
15-Aug-20 11:48 37.618223 -122.388091 131 17ft 0kts
15-Aug-20 11:49 37.618223 -122.388091 131 17ft 0kts
15-Aug-20 11:50 37.618223 -122.388091 131 17ft 0kts
15-Aug-20 11:51 37.618223 -122.388091 131 17ft 0kts
15-Aug-20 11:52 37.618223 -122.388091 131 17ft 0kts
15-Aug-20 11:53 37.618223 -122.388091 131 17ft 0kts
15-Aug-20 11:54 37.618223 -122.388091 131 17ft 0kts
15-Aug-20 11:55 37.618223 -122.388091 131 17ft 0kts
15-Aug-20 11:56 37.618223 -122.388091 131 17ft 0kts
15-Aug-20 11:57 37.618223 -122.388091 131 17ft 0kts
15-Aug-20 11:58 37.618223 -122.388091 131 17ft 0kts
15-Aug-20 11:59 37.618223 -122.388091 131 17ft 0kts
15-Aug-20 12:00 37.618223 -122.388091 131 17ft 0kts
15-Aug-20 12:01 37.618223 -122.388091 131 17ft 0kts
15-Aug-20 12:02 37.618223 -122.388091 131 17ft 0kts
15-Aug-20 12:03 37.618223 -122.388091 131 17ft 0kts
15-Aug-20 12:04 37.618223 -122.388091 131 17ft 0kts
15-Aug-20 12:05 37.618223 -122.388091 131 17ft 0kts
15-Aug-20 12:06 37.618223 -122.388091 131 17ft 0kts
15-Aug-20 12:07 37.618223 -122.388091 131 17ft 0kts
15-Aug-20 12:08 37.618223 -122.388091 131 17ft 0kts
15-Aug-20 12:09 37.618223 -122.388091 131 17ft 0kts
15-Aug-20 12:10 37.618223 -122.388091 131 17ft 0kts
15-Aug-20 12:11 37.618223 -122.388091 131 17ft 0kts
15-Aug-20 12:12 37.618223 -122.388091 131 17ft 0kts
15-Aug-20 12:13 37.618223 -122.388091 131 17ft 0kts
15-Aug-20 12:14 37.618223 -122.388091 131 17ft 0kts
15-Aug-20 12:15 37.618223 -122.388091 131 17ft 0kts
15-Aug-20 12:16 37.618223 -122.388091 131 17ft 0kts
15-Aug-20 12:17 37.618223 -122.388091 131 17ft 0kts
15-Aug-20 12:18 37.618223 -122.388091 131 17ft 0kts
15-Aug-20 12:19 37.618223 -122.388091 131 17ft 0kts
15-Aug-20 12:20 37.618223 -122.388091 131 17ft 0kts
15-Aug-20 12:21 37.618223 -122.388091 131 17ft 0kts
15-Aug-20 12:22 37.618436 -122.388449 127 18ft 2kts
15-Aug-20 12:23 37.618794 -122.388763 202 18ft 2kts
15-Aug-20 12:24 37.618977 -122.388751 298 18ft 0kts
15-Aug-20 12:25 37.618977 -122.388752 298 17ft 0kts
15-Aug-20 12:26 37.618977 -122.388752 298 17ft 0kts
15-Aug-20 12:27 37.619538 -122.390158 298 17ft 10kts
15-Aug-20 12:28 37.619713 -122.390543 299 17ft 1kts
15-Aug-20 12:29 37.620110 -122.391504 299 17ft 5kts
15-Aug-20 12:30 37.622672 -122.391749 37 15ft 17kts
15-Aug-20 12:31 37.622164 -122.386202 119 15ft 16kts
15-Aug-20 12:32 37.620831 -122.383065 118 16ft 14kts
15-Aug-20 12:33 37.618813 -122.379117 146 18ft 13kts
15-Aug-20 12:34 37.614873 -122.379886 208 17ft 16kts
15-Aug-20 12:35 37.610816 -122.382567 207 18ft 15kts
15-Aug-20 12:37 37.609482 -122.383405 204 18ft 4kts
15-Aug-20 12:38 37.608498 -122.383808 139 17ft 0kts
15-Aug-20 12:39 37.608498 -122.383808 139 17ft 0kts
15-Aug-20 12:40 37.608669 -122.382518 30 18ft 17kts
15-Aug-20 12:41 37.638590 -122.361113 41 1145ft 168kts
15-Aug-20 12:42 37.675630 -122.317527 36 3312ft 189kts
15-Aug-20 12:43 37.714319 -122.268384 70 5207ft 220kts
15-Aug-20 12:44 37.736224 -122.188479 71 7576ft 246kts
15-Aug-20 12:45 37.762866 -122.108008 72 10049ft 257kts
15-Aug-20 12:46 37.791942 -122.014242 73 11464ft 311kts
15-Aug-20 12:47 37.824653 -121.902441 74 13235ft 351kts
15-Aug-20 12:48 37.859001 -121.782505 74 15455ft 365kts
15-Aug-20 12:49 37.893768 -121.659804 75 17754ft 366kts
15-Aug-20 12:49 37.922494 -121.557356 75 19586ft 364kts
15-Aug-20 12:51 37.962409 -121.414473 75 21902ft 361kts
15-Aug-20 12:52 37.996357 -121.292459 75 23666ft 359kts
15-Aug-20 12:53 38.030704 -121.167637 75 24571ft 381kts
15-Aug-20 12:53 38.060432 -121.057638 75 25348ft 395kts
15-Aug-20 12:55 38.092137 -120.896381 82 26550ft 404kts
15-Aug-20 12:56 38.114891 -120.752644 78 27658ft 415kts
15-Aug-20 12:56 38.145354 -120.633586 75 28590ft 420kts
15-Aug-20 12:57 38.182579 -120.488196 75 29068ft 439kts
15-Aug-20 12:59 38.228104 -120.307141 75 29058ft 466kts
15-Aug-20 12:59 38.258986 -120.171331 78 29112ft 471kts
15-Aug-20 13:00 38.291751 -120.007703 78 29295ft 471kts
15-Aug-20 13:01 38.319233 -119.842169 84 29319ft 467kts
15-Aug-20 13:02 38.338511 -119.677207 84 29331ft 461kts
15-Aug-20 13:03 38.357205 -119.513816 84 29344ft 457kts
15-Aug-20 13:04 38.375379 -119.351811 84 29357ft 453kts
15-Aug-20 13:05 38.393241 -119.189639 84 29370ft 452kts
15-Aug-20 13:06 38.410802 -119.027866 84 29376ft 457kts
15-Aug-20 13:07 38.428255 -118.864329 84 29254ft 463kts
15-Aug-20 13:08 38.446974 -118.699379 83 29205ft 466kts
15-Aug-20 13:09 38.476278 -118.535076 76 29211ft 470kts
15-Aug-20 13:10 38.508832 -118.371238 86 29209ft 468kts
15-Aug-20 13:11 38.471130 -118.218633 134 29210ft 451kts
15-Aug-20 13:12 38.376530 -118.111150 145 29215ft 448kts
15-Aug-20 13:13 38.274653 -118.016768 146 29274ft 448kts
15-Aug-20 13:14 38.170388 -117.928023 149 29290ft 447kts
15-Aug-20 13:15 38.065509 -117.839482 146 29292ft 449kts
15-Aug-20 13:16 37.961771 -117.747591 146 29291ft 449kts
15-Aug-20 13:17 37.861767 -117.657935 146 29281ft 450kts
15-Aug-20 13:18 37.758094 -117.564685 146 29256ft 452kts
15-Aug-20 13:19 37.654539 -117.471858 146 29255ft 450kts
15-Aug-20 13:20 37.551213 -117.379531 145 29255ft 448kts
15-Aug-20 13:21 37.449256 -117.288723 146 29255ft 446kts
15-Aug-20 13:22 37.346583 -117.197579 146 29255ft 445kts
15-Aug-20 13:23 37.243995 -117.106813 146 29239ft 445kts
15-Aug-20 13:24 37.141391 -117.016349 146 29149ft 447kts
15-Aug-20 13:25 37.039132 -116.926475 146 29113ft 437kts
15-Aug-20 13:26 36.940610 -116.840031 146 29104ft 417kts
15-Aug-20 13:27 36.848075 -116.758938 145 27403ft 400kts
15-Aug-20 13:28 36.758851 -116.675380 135 24055ft 384kts
15-Aug-20 13:29 36.681718 -116.581228 135 24115ft 391kts
15-Aug-20 13:30 36.603129 -116.485726 135 23865ft 385kts
15-Aug-20 13:31 36.531581 -116.390201 124 23529ft 367kts
15-Aug-20 13:32 36.477306 -116.282950 122 23245ft 356kts
15-Aug-20 13:33 36.419210 -116.176079 126 23273ft 382kts
15-Aug-20 13:34 36.353147 -116.070407 133 21680ft 367kts
15-Aug-20 13:35 36.276958 -115.986894 142 18606ft 361kts
15-Aug-20 13:36 36.199011 -115.910902 141 16127ft 337kts
15-Aug-20 13:37 36.153376 -115.816538 111 16024ft 318kts
15-Aug-20 13:38 36.121304 -115.713307 111 16028ft 318kts
15-Aug-20 13:39 36.087024 -115.608976 118 16026ft 326kts
15-Aug-20 13:40 36.011679 -115.542119 151 14801ft 332kts
15-Aug-20 13:41 35.932321 -115.488409 151 13601ft 312kts
15-Aug-20 13:42 35.863122 -115.433615 141 12343ft 302kts
15-Aug-20 13:43 35.797632 -115.368821 141 11105ft 291kts
15-Aug-20 13:44 35.736955 -115.309017 141 11036ft 276kts
15-Aug-20 13:45 35.737979 -115.225239 31 10277ft 298kts
15-Aug-20 13:46 35.821449 -115.223991 351 8503ft 299kts
15-Aug-20 13:47 35.900891 -115.237980 355 7087ft 276kts
15-Aug-20 13:48 35.976250 -115.223405 19 5094ft 269kts
15-Aug-20 13:49 36.041802 -115.186316 26 3243ft 227kts
15-Aug-20 13:50 36.082828 -115.161543 21 2322ft 134kts
15-Aug-20 13:51 36.119228 -115.144574 348 3526ft 165kts
15-Aug-20 13:52 36.141261 -115.194540 282 5154ft 202kts
15-Aug-20 13:53 36.132225 -115.258075 217 4520ft 218kts
15-Aug-20 13:54 36.078617 -115.242395 137 3500ft 196kts
15-Aug-20 13:55 36.073597 -115.186492 88 2531ft 155kts
15-Aug-20 13:56 36.073702 -115.138412 90 2187ft 70kts
15-Aug-20 13:57 36.074935 -115.134162 52 2187ft 3kts
15-Aug-20 13:58 36.075252 -115.133885 12 2187ft 4kts
15-Aug-20 13:59 36.077457 -115.133782 9 2187ft 17kts
15-Aug-20 14:00 36.077745 -115.133738 4 2187ft 0kts
15-Aug-20 14:01 36.078811 -115.133746 359 2187ft 15kts
15-Aug-20 14:02 36.083510 -115.134116 319 2187ft 15kts
15-Aug-20 14:03 36.083985 -115.138357 268 2187ft 6kts
15-Aug-20 14:04 36.083573 -115.139787 155 2187ft 2kts
15-Aug-20 14:05 36.083445 -115.139714 158 2187ft 0kts
15-Aug-20 14:06 36.083376 -115.139681 158 2187ft 0kts
15-Aug-20 14:07 36.083376 -115.139681 158 2187ft 0kts
15-Aug-20 14:08 36.083376 -115.139681 158 2187ft 0kts

Navigation Log

Ident Type
Flight plan parsing failed, navigation log unavailable